Terminal Aerodrome Forecast
Issued by NWS Upton, NY

Home | Current Version | Previous Version | Text Only | Print | Product List | Glossary On
Versions: 1 2 3 4 5 6 7 8 9 10 11 12 13 14 15 16 17 18 19 20 21 22 23 24 25 26 27 28 29 30 31
609
FTUS41 KOKX 231435 AAC
TAFJFK
TAF AMD
KJFK 231435Z 2315/2418 14006KT P6SM FEW300
     FM231600 16008KT P6SM FEW300
     FM232100 17013KT P6SM FEW300
     FM240100 17007KT P6SM FEW300
     FM240500 VRB03KT P6SM BKN300
     FM241500 13008KT P6SM OVC200=

USA.gov is the U.S. government's official web portal to all federal, state and local government web resources and services.